sensor_id;sensor_type;location;lat;lon;timestamp;P1;durP1;ratioP1;P2;durP2;ratioP2
31760;SDS011;18335;51.486;7.562;2023-03-01T00:02:21;11.82;;;6.38;;
31760;SDS011;18335;51.486;7.562;2023-03-01T00:04:47;15.93;;;7.53;;
31760;SDS011;18335;51.486;7.562;2023-03-01T00:07:14;13.60;;;7.28;;
31760;SDS011;18335;51.486;7.562;2023-03-01T00:09:41;17.95;;;7.68;;
31760;SDS011;18335;51.486;7.562;2023-03-01T00:12:11;17.70;;;8.10;;
31760;SDS011;18335;51.486;7.562;2023-03-01T00:14:39;16.60;;;7.63;;
31760;SDS011;18335;51.486;7.562;2023-03-01T00:17:05;16.38;;;7.97;;
31760;SDS011;18335;51.486;7.562;2023-03-01T00:19:32;15.07;;;7.68;;
31760;SDS011;18335;51.486;7.562;2023-03-01T00:21:59;16.67;;;8.65;;
31760;SDS011;18335;51.486;7.562;2023-03-01T00:24:26;16.55;;;9.40;;
31760;SDS011;18335;51.486;7.562;2023-03-01T00:26:52;19.00;;;8.40;;
31760;SDS011;18335;51.486;7.562;2023-03-01T00:29:21;15.60;;;8.65;;
31760;SDS011;18335;51.486;7.562;2023-03-01T00:31:49;14.95;;;8.02;;
31760;SDS011;18335;51.486;7.562;2023-03-01T00:34:15;14.90;;;8.38;;
31760;SDS011;18335;51.486;7.562;2023-03-01T00:36:42;19.13;;;8.48;;
31760;SDS011;18335;51.486;7.562;2023-03-01T00:39:10;14.77;;;7.72;;
31760;SDS011;18335;51.486;7.562;2023-03-01T00:41:38;17.88;;;8.45;;
31760;SDS011;18335;51.486;7.562;2023-03-01T00:44:07;15.95;;;7.78;;
31760;SDS011;18335;51.486;7.562;2023-03-01T00:46:34;16.55;;;7.70;;
31760;SDS011;18335;51.486;7.562;2023-03-01T00:49:03;17.55;;;7.88;;
31760;SDS011;18335;51.486;7.562;2023-03-01T00:51:29;16.58;;;7.63;;
31760;SDS011;18335;51.486;7.562;2023-03-01T00:53:59;20.30;;;8.07;;
31760;SDS011;18335;51.486;7.562;2023-03-01T00:56:27;16.00;;;7.75;;
31760;SDS011;18335;51.486;7.562;2023-03-01T00:58:54;13.93;;;7.40;;
31760;SDS011;18335;51.486;7.562;2023-03-01T01:01:22;18.27;;;8.90;;
31760;SDS011;18335;51.486;7.562;2023-03-01T01:03:53;14.00;;;8.07;;
31760;SDS011;18335;51.486;7.562;2023-03-01T01:06:24;19.65;;;7.85;;
31760;SDS011;18335;51.486;7.562;2023-03-01T01:08:52;19.38;;;8.52;;
31760;SDS011;18335;51.486;7.562;2023-03-01T01:11:20;14.10;;;7.43;;
31760;SDS011;18335;51.486;7.562;2023-03-01T01:13:48;16.55;;;9.25;;
31760;SDS011;18335;51.486;7.562;2023-03-01T01:16:16;15.60;;;8.40;;
31760;SDS011;18335;51.486;7.562;2023-03-01T01:18:44;18.30;;;8.88;;
31760;SDS011;18335;51.486;7.562;2023-03-01T01:21:12;16.63;;;8.85;;
31760;SDS011;18335;51.486;7.562;2023-03-01T01:23:41;17.45;;;8.30;;
31760;SDS011;18335;51.486;7.562;2023-03-01T01:26:10;16.77;;;9.15;;
31760;SDS011;18335;51.486;7.562;2023-03-01T01:28:39;18.10;;;9.25;;
31760;SDS011;18335;51.486;7.562;2023-03-01T01:31:06;19.42;;;8.20;;
31760;SDS011;18335;51.486;7.562;2023-03-01T01:33:33;15.40;;;7.82;;
31760;SDS011;18335;51.486;7.562;2023-03-01T01:36:00;16.83;;;9.38;;
31760;SDS011;18335;51.486;7.562;2023-03-01T01:38:27;18.98;;;9.00;;
31760;SDS011;18335;51.486;7.562;2023-03-01T01:40:55;14.80;;;8.13;;
31760;SDS011;18335;51.486;7.562;2023-03-01T01:43:22;16.00;;;8.35;;
31760;SDS011;18335;51.486;7.562;2023-03-01T01:45:50;16.60;;;8.50;;
31760;SDS011;18335;51.486;7.562;2023-03-01T01:48:20;16.63;;;9.68;;
31760;SDS011;18335;51.486;7.562;2023-03-01T01:50:51;15.80;;;8.85;;
31760;SDS011;18335;51.486;7.562;2023-03-01T01:53:23;14.27;;;8.07;;
31760;SDS011;18335;51.486;7.562;2023-03-01T01:55:53;16.50;;;8.63;;
31760;SDS011;18335;51.486;7.562;2023-03-01T01:58:24;18.45;;;10.68;;
31760;SDS011;18335;51.486;7.562;2023-03-01T02:00:54;17.05;;;9.23;;
31760;SDS011;18335;51.486;7.562;2023-03-01T02:03:23;19.88;;;9.18;;
31760;SDS011;18335;51.486;7.562;2023-03-01T02:05:57;18.23;;;8.82;;
31760;SDS011;18335;51.486;7.562;2023-03-01T02:08:30;19.67;;;9.68;;
31760;SDS011;18335;51.486;7.562;2023-03-01T02:10:59;21.50;;;9.57;;
31760;SDS011;18335;51.486;7.562;2023-03-01T02:13:31;15.85;;;9.20;;
31760;SDS011;18335;51.486;7.562;2023-03-01T02:15:58;16.85;;;9.15;;
31760;SDS011;18335;51.486;7.562;2023-03-01T02:18:25;20.00;;;10.10;;
31760;SDS011;18335;51.486;7.562;2023-03-01T02:20:59;14.52;;;8.25;;
31760;SDS011;18335;51.486;7.562;2023-03-01T02:23:36;18.48;;;9.82;;
31760;SDS011;18335;51.486;7.562;2023-03-01T02:26:05;15.77;;;9.30;;
31760;SDS011;18335;51.486;7.562;2023-03-01T02:28:40;18.80;;;9.27;;
31760;SDS011;18335;51.486;7.562;2023-03-01T02:31:10;15.93;;;9.93;;
31760;SDS011;18335;51.486;7.562;2023-03-01T02:33:59;18.52;;;10.73;;
31760;SDS011;18335;51.486;7.562;2023-03-01T02:36:30;19.48;;;9.85;;
31760;SDS011;18335;51.486;7.562;2023-03-01T02:39:00;19.10;;;10.02;;
31760;SDS011;18335;51.486;7.562;2023-03-01T02:41:30;19.45;;;9.10;;
31760;SDS011;18335;51.486;7.562;2023-03-01T02:44:03;19.40;;;10.07;;
31760;SDS011;18335;51.486;7.562;2023-03-01T02:46:31;19.10;;;9.05;;
31760;SDS011;18335;51.486;7.562;2023-03-01T02:48:58;20.75;;;8.93;;
31760;SDS011;18335;51.486;7.562;2023-03-01T02:51:34;16.92;;;8.38;;
31760;SDS011;18335;51.486;7.562;2023-03-01T02:54:12;17.55;;;9.35;;
31760;SDS011;18335;51.486;7.562;2023-03-01T02:56:45;18.42;;;9.77;;
31760;SDS011;18335;51.486;7.562;2023-03-01T02:59:18;17.70;;;9.60;;
31760;SDS011;18335;51.486;7.562;2023-03-01T03:01:47;16.05;;;8.93;;
31760;SDS011;18335;51.486;7.562;2023-03-01T03:04:16;15.30;;;8.95;;
31760;SDS011;18335;51.486;7.562;2023-03-01T03:06:48;19.35;;;10.35;;
31760;SDS011;18335;51.486;7.562;2023-03-01T03:09:17;16.40;;;8.95;;
31760;SDS011;18335;51.486;7.562;2023-03-01T03:11:44;20.92;;;9.13;;
31760;SDS011;18335;51.486;7.562;2023-03-01T03:14:12;19.02;;;9.98;;
31760;SDS011;18335;51.486;7.562;2023-03-01T03:16:46;18.00;;;9.57;;
31760;SDS011;18335;51.486;7.562;2023-03-01T03:19:14;20.73;;;11.48;;
31760;SDS011;18335;51.486;7.562;2023-03-01T03:21:41;21.63;;;10.60;;
31760;SDS011;18335;51.486;7.562;2023-03-01T03:24:08;22.17;;;10.57;;
31760;SDS011;18335;51.486;7.562;2023-03-01T03:26:35;21.52;;;11.35;;
31760;SDS011;18335;51.486;7.562;2023-03-01T03:29:02;21.45;;;9.85;;
31760;SDS011;18335;51.486;7.562;2023-03-01T03:31:29;18.60;;;9.48;;
31760;SDS011;18335;51.486;7.562;2023-03-01T03:33:57;22.98;;;11.23;;
31760;SDS011;18335;51.486;7.562;2023-03-01T03:36:25;19.83;;;10.55;;
31760;SDS011;18335;51.486;7.562;2023-03-01T03:38:51;18.27;;;9.10;;
31760;SDS011;18335;51.486;7.562;2023-03-01T03:41:18;21.33;;;10.35;;
31760;SDS011;18335;51.486;7.562;2023-03-01T03:43:45;19.30;;;9.95;;
31760;SDS011;18335;51.486;7.562;2023-03-01T03:46:12;21.63;;;11.25;;
31760;SDS011;18335;51.486;7.562;2023-03-01T03:48:41;19.00;;;10.23;;
31760;SDS011;18335;51.486;7.562;2023-03-01T03:51:11;20.17;;;10.88;;
31760;SDS011;18335;51.486;7.562;2023-03-01T03:53:39;19.75;;;9.70;;
31760;SDS011;18335;51.486;7.562;2023-03-01T03:56:07;18.05;;;10.20;;
31760;SDS011;18335;51.486;7.562;2023-03-01T03:58:34;19.85;;;10.65;;
31760;SDS011;18335;51.486;7.562;2023-03-01T04:01:01;21.00;;;10.07;;
31760;SDS011;18335;51.486;7.562;2023-03-01T04:03:29;15.48;;;9.07;;
31760;SDS011;18335;51.486;7.562;2023-03-01T04:05:57;22.45;;;11.18;;
31760;SDS011;18335;51.486;7.562;2023-03-01T04:08:26;16.92;;;8.98;;
31760;SDS011;18335;51.486;7.562;2023-03-01T04:10:56;16.88;;;8.93;;
31760;SDS011;18335;51.486;7.562;2023-03-01T04:13:24;19.83;;;10.50;;
31760;SDS011;18335;51.486;7.562;2023-03-01T04:15:52;19.33;;;10.27;;
31760;SDS011;18335;51.486;7.562;2023-03-01T04:18:20;21.80;;;10.30;;
31760;SDS011;18335;51.486;7.562;2023-03-01T04:20:49;20.30;;;11.02;;
31760;SDS011;18335;51.486;7.562;2023-03-01T04:23:17;19.92;;;11.10;;
31760;SDS011;18335;51.486;7.562;2023-03-01T04:25:48;20.48;;;9.48;;
31760;SDS011;18335;51.486;7.562;2023-03-01T04:28:19;17.23;;;9.77;;
31760;SDS011;18335;51.486;7.562;2023-03-01T04:30:47;22.60;;;12.02;;
31760;SDS011;18335;51.486;7.562;2023-03-01T04:33:14;21.75;;;9.90;;
31760;SDS011;18335;51.486;7.562;2023-03-01T04:35:40;23.85;;;12.85;;
31760;SDS011;18335;51.486;7.562;2023-03-01T04:38:07;18.77;;;10.85;;
31760;SDS011;18335;51.486;7.562;2023-03-01T04:40:35;22.75;;;11.32;;
31760;SDS011;18335;51.486;7.562;2023-03-01T04:43:04;18.23;;;9.23;;
31760;SDS011;18335;51.486;7.562;2023-03-01T04:45:31;18.83;;;10.05;;
31760;SDS011;18335;51.486;7.562;2023-03-01T04:47:59;19.02;;;10.55;;
31760;SDS011;18335;51.486;7.562;2023-03-01T04:50:26;18.23;;;9.43;;
31760;SDS011;18335;51.486;7.562;2023-03-01T04:52:53;20.05;;;10.52;;
31760;SDS011;18335;51.486;7.562;2023-03-01T04:55:24;22.13;;;11.43;;
31760;SDS011;18335;51.486;7.562;2023-03-01T04:57:51;20.20;;;9.98;;
31760;SDS011;18335;51.486;7.562;2023-03-01T05:00:21;21.73;;;11.55;;
31760;SDS011;18335;51.486;7.562;2023-03-01T05:02:48;17.90;;;9.52;;
31760;SDS011;18335;51.486;7.562;2023-03-01T05:05:19;24.00;;;11.15;;
31760;SDS011;18335;51.486;7.562;2023-03-01T05:07:53;24.40;;;11.45;;
31760;SDS011;18335;51.486;7.562;2023-03-01T05:10:21;24.10;;;11.15;;
31760;SDS011;18335;51.486;7.562;2023-03-01T05:12:48;26.30;;;12.38;;
31760;SDS011;18335;51.486;7.562;2023-03-01T05:15:17;25.55;;;11.23;;
31760;SDS011;18335;51.486;7.562;2023-03-01T05:17:45;20.52;;;10.10;;
31760;SDS011;18335;51.486;7.562;2023-03-01T05:20:12;23.75;;;11.70;;
31760;SDS011;18335;51.486;7.562;2023-03-01T05:22:39;22.17;;;12.15;;
31760;SDS011;18335;51.486;7.562;2023-03-01T05:25:06;20.25;;;10.13;;
31760;SDS011;18335;51.486;7.562;2023-03-01T05:27:33;19.77;;;10.20;;
31760;SDS011;18335;51.486;7.562;2023-03-01T05:30:01;24.23;;;10.80;;
31760;SDS011;18335;51.486;7.562;2023-03-01T05:32:39;21.15;;;9.82;;
31760;SDS011;18335;51.486;7.562;2023-03-01T05:35:09;22.23;;;12.25;;
31760;SDS011;18335;51.486;7.562;2023-03-01T05:37:39;177.85;;;24.20;;
31760;SDS011;18335;51.486;7.562;2023-03-01T05:40:09;25.00;;;11.85;;
31760;SDS011;18335;51.486;7.562;2023-03-01T05:42:41;23.65;;;11.50;;
31760;SDS011;18335;51.486;7.562;2023-03-01T05:45:13;25.48;;;12.18;;
31760;SDS011;18335;51.486;7.562;2023-03-01T05:47:40;20.67;;;10.68;;
31760;SDS011;18335;51.486;7.562;2023-03-01T05:50:14;19.05;;;10.15;;
31760;SDS011;18335;51.486;7.562;2023-03-01T05:52:44;21.52;;;10.88;;
31760;SDS011;18335;51.486;7.562;2023-03-01T05:55:11;23.42;;;12.48;;
31760;SDS011;18335;51.486;7.562;2023-03-01T05:57:38;23.33;;;11.90;;
31760;SDS011;18335;51.486;7.562;2023-03-01T06:00:06;20.63;;;10.70;;
31760;SDS011;18335;51.486;7.562;2023-03-01T06:02:37;24.27;;;11.52;;
31760;SDS011;18335;51.486;7.562;2023-03-01T06:05:05;19.67;;;10.38;;
31760;SDS011;18335;51.486;7.562;2023-03-01T06:07:35;22.63;;;12.02;;
31760;SDS011;18335;51.486;7.562;2023-03-01T06:10:01;19.80;;;10.60;;
31760;SDS011;18335;51.486;7.562;2023-03-01T06:12:30;18.20;;;10.13;;
31760;SDS011;18335;51.486;7.562;2023-03-01T06:14:57;20.90;;;11.30;;
31760;SDS011;18335;51.486;7.562;2023-03-01T06:17:24;22.92;;;11.35;;
31760;SDS011;18335;51.486;7.562;2023-03-01T06:19:50;19.17;;;9.95;;
31760;SDS011;18335;51.486;7.562;2023-03-01T06:22:17;19.95;;;10.05;;
31760;SDS011;18335;51.486;7.562;2023-03-01T06:24:45;22.02;;;10.75;;
31760;SDS011;18335;51.486;7.562;2023-03-01T06:27:12;23.23;;;10.43;;
31760;SDS011;18335;51.486;7.562;2023-03-01T06:29:38;19.33;;;10.40;;
31760;SDS011;18335;51.486;7.562;2023-03-01T06:32:06;18.20;;;10.15;;
31760;SDS011;18335;51.486;7.562;2023-03-01T06:34:33;19.85;;;10.75;;
31760;SDS011;18335;51.486;7.562;2023-03-01T06:36:59;20.70;;;10.27;;
31760;SDS011;18335;51.486;7.562;2023-03-01T06:39:27;21.90;;;10.27;;
31760;SDS011;18335;51.486;7.562;2023-03-01T06:41:55;23.65;;;10.88;;
31760;SDS011;18335;51.486;7.562;2023-03-01T06:44:22;21.05;;;10.00;;
31760;SDS011;18335;51.486;7.562;2023-03-01T06:46:49;16.95;;;8.68;;
31760;SDS011;18335;51.486;7.562;2023-03-01T06:49:16;20.58;;;11.23;;
31760;SDS011;18335;51.486;7.562;2023-03-01T06:51:43;23.08;;;10.68;;
31760;SDS011;18335;51.486;7.562;2023-03-01T06:54:10;26.13;;;11.93;;
31760;SDS011;18335;51.486;7.562;2023-03-01T06:56:37;18.55;;;10.32;;
31760;SDS011;18335;51.486;7.562;2023-03-01T06:59:05;23.73;;;10.35;;
31760;SDS011;18335;51.486;7.562;2023-03-01T07:01:31;20.92;;;11.43;;
31760;SDS011;18335;51.486;7.562;2023-03-01T07:03:58;27.08;;;10.90;;
31760;SDS011;18335;51.486;7.562;2023-03-01T07:06:25;23.73;;;11.25;;
31760;SDS011;18335;51.486;7.562;2023-03-01T07:08:51;18.45;;;10.88;;
31760;SDS011;18335;51.486;7.562;2023-03-01T07:11:18;24.80;;;11.75;;
31760;SDS011;18335;51.486;7.562;2023-03-01T07:13:45;22.42;;;11.85;;
31760;SDS011;18335;51.486;7.562;2023-03-01T07:16:13;21.90;;;9.98;;
31760;SDS011;18335;51.486;7.562;2023-03-01T07:18:40;23.63;;;11.45;;
31760;SDS011;18335;51.486;7.562;2023-03-01T07:21:07;23.70;;;11.48;;
31760;SDS011;18335;51.486;7.562;2023-03-01T07:23:37;22.63;;;11.32;;
31760;SDS011;18335;51.486;7.562;2023-03-01T07:26:04;20.98;;;11.43;;
31760;SDS011;18335;51.486;7.562;2023-03-01T07:28:31;21.63;;;12.00;;
31760;SDS011;18335;51.486;7.562;2023-03-01T07:31:01;21.05;;;11.45;;
31760;SDS011;18335;51.486;7.562;2023-03-01T07:33:29;23.88;;;12.23;;
31760;SDS011;18335;51.486;7.562;2023-03-01T07:35:56;21.90;;;11.25;;
31760;SDS011;18335;51.486;7.562;2023-03-01T07:38:24;20.30;;;10.48;;
31760;SDS011;18335;51.486;7.562;2023-03-01T07:40:50;24.38;;;13.18;;
31760;SDS011;18335;51.486;7.562;2023-03-01T07:43:17;23.40;;;12.68;;
31760;SDS011;18335;51.486;7.562;2023-03-01T07:45:44;25.95;;;14.13;;
31760;SDS011;18335;51.486;7.562;2023-03-01T07:48:11;26.58;;;13.18;;
31760;SDS011;18335;51.486;7.562;2023-03-01T07:50:39;22.48;;;13.35;;
31760;SDS011;18335;51.486;7.562;2023-03-01T07:53:05;24.02;;;13.18;;
31760;SDS011;18335;51.486;7.562;2023-03-01T07:55:32;28.48;;;13.85;;
31760;SDS011;18335;51.486;7.562;2023-03-01T07:57:59;21.40;;;13.10;;
31760;SDS011;18335;51.486;7.562;2023-03-01T08:00:26;24.63;;;12.60;;
31760;SDS011;18335;51.486;7.562;2023-03-01T08:02:52;24.73;;;13.40;;
31760;SDS011;18335;51.486;7.562;2023-03-01T08:05:19;23.15;;;11.98;;
31760;SDS011;18335;51.486;7.562;2023-03-01T08:07:48;25.02;;;12.75;;
31760;SDS011;18335;51.486;7.562;2023-03-01T08:10:15;30.88;;;11.73;;
31760;SDS011;18335;51.486;7.562;2023-03-01T08:12:42;23.77;;;12.55;;
31760;SDS011;18335;51.486;7.562;2023-03-01T08:15:09;22.10;;;12.02;;
31760;SDS011;18335;51.486;7.562;2023-03-01T08:17:37;23.27;;;13.40;;
31760;SDS011;18335;51.486;7.562;2023-03-01T08:20:04;22.95;;;12.82;;
31760;SDS011;18335;51.486;7.562;2023-03-01T08:22:32;24.48;;;12.10;;
31760;SDS011;18335;51.486;7.562;2023-03-01T08:25:00;22.90;;;13.88;;
31760;SDS011;18335;51.486;7.562;2023-03-01T08:27:26;24.30;;;13.50;;
31760;SDS011;18335;51.486;7.562;2023-03-01T08:29:53;28.98;;;12.55;;
31760;SDS011;18335;51.486;7.562;2023-03-01T08:32:20;25.80;;;13.20;;
31760;SDS011;18335;51.486;7.562;2023-03-01T08:34:46;23.60;;;12.00;;
31760;SDS011;18335;51.486;7.562;2023-03-01T08:37:13;24.10;;;12.43;;
31760;SDS011;18335;51.486;7.562;2023-03-01T08:39:40;24.33;;;13.25;;
31760;SDS011;18335;51.486;7.562;2023-03-01T08:42:08;23.08;;;11.77;;
31760;SDS011;18335;51.486;7.562;2023-03-01T08:44:35;21.63;;;11.63;;
31760;SDS011;18335;51.486;7.562;2023-03-01T08:47:01;23.27;;;9.57;;
31760;SDS011;18335;51.486;7.562;2023-03-01T08:49:30;17.65;;;9.63;;
31760;SDS011;18335;51.486;7.562;2023-03-01T08:51:57;20.75;;;9.48;;
31760;SDS011;18335;51.486;7.562;2023-03-01T08:54:24;17.90;;;9.02;;
31760;SDS011;18335;51.486;7.562;2023-03-01T08:56:51;17.90;;;8.98;;
31760;SDS011;18335;51.486;7.562;2023-03-01T08:59:19;19.40;;;10.32;;
31760;SDS011;18335;51.486;7.562;2023-03-01T09:01:46;15.68;;;8.25;;
31760;SDS011;18335;51.486;7.562;2023-03-01T09:04:12;15.75;;;8.85;;
31760;SDS011;18335;51.486;7.562;2023-03-01T09:06:41;15.27;;;8.60;;
31760;SDS011;18335;51.486;7.562;2023-03-01T09:09:10;19.00;;;9.32;;
31760;SDS011;18335;51.486;7.562;2023-03-01T09:11:41;17.98;;;9.15;;
31760;SDS011;18335;51.486;7.562;2023-03-01T09:14:08;18.48;;;8.63;;
31760;SDS011;18335;51.486;7.562;2023-03-01T09:16:36;15.25;;;8.32;;
31760;SDS011;18335;51.486;7.562;2023-03-01T09:19:03;14.90;;;7.93;;
31760;SDS011;18335;51.486;7.562;2023-03-01T09:21:30;21.55;;;9.45;;
31760;SDS011;18335;51.486;7.562;2023-03-01T09:23:57;17.00;;;8.50;;
31760;SDS011;18335;51.486;7.562;2023-03-01T09:26:24;15.45;;;7.65;;
31760;SDS011;18335;51.486;7.562;2023-03-01T09:28:52;16.13;;;8.10;;
31760;SDS011;18335;51.486;7.562;2023-03-01T09:31:21;17.38;;;8.48;;
31760;SDS011;18335;51.486;7.562;2023-03-01T09:33:51;17.00;;;9.07;;
31760;SDS011;18335;51.486;7.562;2023-03-01T09:36:20;18.10;;;9.23;;
31760;SDS011;18335;51.486;7.562;2023-03-01T09:38:48;15.20;;;8.25;;
31760;SDS011;18335;51.486;7.562;2023-03-01T09:41:19;14.50;;;8.15;;
31760;SDS011;18335;51.486;7.562;2023-03-01T09:43:59;19.65;;;7.75;;
31760;SDS011;18335;51.486;7.562;2023-03-01T09:46:30;17.40;;;8.52;;
31760;SDS011;18335;51.486;7.562;2023-03-01T09:49:07;16.20;;;7.88;;
31760;SDS011;18335;51.486;7.562;2023-03-01T09:51:37;15.40;;;7.97;;
31760;SDS011;18335;51.486;7.562;2023-03-01T09:54:04;16.92;;;8.73;;
31760;SDS011;18335;51.486;7.562;2023-03-01T09:56:33;14.70;;;8.07;;
31760;SDS011;18335;51.486;7.562;2023-03-01T09:59:07;14.43;;;7.72;;
31760;SDS011;18335;51.486;7.562;2023-03-01T10:01:47;19.33;;;8.15;;
31760;SDS011;18335;51.486;7.562;2023-03-01T10:04:30;16.35;;;7.93;;
31760;SDS011;18335;51.486;7.562;2023-03-01T10:07:14;14.88;;;8.02;;
31760;SDS011;18335;51.486;7.562;2023-03-01T10:09:48;14.82;;;9.25;;
31760;SDS011;18335;51.486;7.562;2023-03-01T10:12:15;17.70;;;8.10;;
31760;SDS011;18335;51.486;7.562;2023-03-01T10:14:47;15.48;;;7.90;;
31760;SDS011;18335;51.486;7.562;2023-03-01T10:17:24;14.98;;;7.78;;
31760;SDS011;18335;51.486;7.562;2023-03-01T10:19:55;18.02;;;8.40;;
31760;SDS011;18335;51.486;7.562;2023-03-01T10:22:36;16.13;;;8.30;;
31760;SDS011;18335;51.486;7.562;2023-03-01T10:25:03;13.60;;;6.90;;
31760;SDS011;18335;51.486;7.562;2023-03-01T10:27:33;13.73;;;7.70;;
31760;SDS011;18335;51.486;7.562;2023-03-01T10:30:09;14.93;;;7.85;;
31760;SDS011;18335;51.486;7.562;2023-03-01T10:32:42;15.25;;;7.75;;
31760;SDS011;18335;51.486;7.562;2023-03-01T10:35:18;16.75;;;7.82;;
31760;SDS011;18335;51.486;7.562;2023-03-01T10:37:57;12.30;;;7.55;;
31760;SDS011;18335;51.486;7.562;2023-03-01T10:40:28;15.18;;;8.45;;
31760;SDS011;18335;51.486;7.562;2023-03-01T10:42:57;16.25;;;7.85;;
31760;SDS011;18335;51.486;7.562;2023-03-01T10:45:35;14.65;;;7.57;;
31760;SDS011;18335;51.486;7.562;2023-03-01T10:48:03;14.95;;;7.57;;
31760;SDS011;18335;51.486;7.562;2023-03-01T10:50:41;15.50;;;7.22;;
31760;SDS011;18335;51.486;7.562;2023-03-01T10:53:20;16.20;;;9.23;;
31760;SDS011;18335;51.486;7.562;2023-03-01T10:55:56;20.00;;;8.38;;
31760;SDS011;18335;51.486;7.562;2023-03-01T10:58:25;17.88;;;7.70;;
31760;SDS011;18335;51.486;7.562;2023-03-01T11:00:52;15.50;;;8.25;;
31760;SDS011;18335;51.486;7.562;2023-03-01T11:03:21;17.10;;;8.57;;
31760;SDS011;18335;51.486;7.562;2023-03-01T11:05:53;15.07;;;7.75;;
31760;SDS011;18335;51.486;7.562;2023-03-01T11:08:32;15.55;;;7.50;;
31760;SDS011;18335;51.486;7.562;2023-03-01T11:11:04;15.10;;;7.95;;
31760;SDS011;18335;51.486;7.562;2023-03-01T11:13:33;18.33;;;8.13;;
31760;SDS011;18335;51.486;7.562;2023-03-01T11:16:02;15.68;;;7.65;;
31760;SDS011;18335;51.486;7.562;2023-03-01T11:18:31;17.98;;;7.40;;
31760;SDS011;18335;51.486;7.562;2023-03-01T11:21:00;18.35;;;8.15;;
31760;SDS011;18335;51.486;7.562;2023-03-01T11:23:29;13.35;;;7.05;;
31760;SDS011;18335;51.486;7.562;2023-03-01T11:25:58;13.23;;;7.35;;
31760;SDS011;18335;51.486;7.562;2023-03-01T11:28:29;13.82;;;7.82;;
31760;SDS011;18335;51.486;7.562;2023-03-01T11:30:57;14.88;;;7.93;;
31760;SDS011;18335;51.486;7.562;2023-03-01T11:33:33;21.00;;;8.18;;
31760;SDS011;18335;51.486;7.562;2023-03-01T11:36:07;17.13;;;7.93;;
31760;SDS011;18335;51.486;7.562;2023-03-01T11:38:39;14.82;;;7.75;;
31760;SDS011;18335;51.486;7.562;2023-03-01T11:41:08;15.95;;;8.35;;
31760;SDS011;18335;51.486;7.562;2023-03-01T11:43:42;18.58;;;7.70;;
31760;SDS011;18335;51.486;7.562;2023-03-01T11:46:33;13.18;;;7.13;;
31760;SDS011;18335;51.486;7.562;2023-03-01T11:49:18;14.68;;;7.18;;
31760;SDS011;18335;51.486;7.562;2023-03-01T11:52:01;19.20;;;8.25;;
31760;SDS011;18335;51.486;7.562;2023-03-01T11:54:40;17.15;;;8.88;;
31760;SDS011;18335;51.486;7.562;2023-03-01T11:57:19;15.95;;;7.28;;
31760;SDS011;18335;51.486;7.562;2023-03-01T12:05:36;15.85;;;8.32;;
31760;SDS011;18335;51.486;7.562;2023-03-01T12:08:19;17.30;;;7.18;;
31760;SDS011;18335;51.486;7.562;2023-03-01T12:10:57;16.77;;;8.40;;
31760;SDS011;18335;51.486;7.562;2023-03-01T12:16:45;13.70;;;8.30;;
31760;SDS011;18335;51.486;7.562;2023-03-01T12:19:37;15.23;;;8.50;;
31760;SDS011;18335;51.486;7.562;2023-03-01T12:22:21;14.40;;;7.45;;
31760;SDS011;18335;51.486;7.562;2023-03-01T12:27:56;20.45;;;9.18;;
31760;SDS011;18335;51.486;7.562;2023-03-01T12:30:38;15.77;;;7.90;;
31760;SDS011;18335;51.486;7.562;2023-03-01T12:33:17;16.13;;;7.50;;
31760;SDS011;18335;51.486;7.562;2023-03-01T12:41:41;16.48;;;8.85;;
31760;SDS011;18335;51.486;7.562;2023-03-01T12:44:15;14.57;;;8.10;;
31760;SDS011;18335;51.486;7.562;2023-03-01T12:47:07;16.02;;;7.55;;
31760;SDS011;18335;51.486;7.562;2023-03-01T12:49:43;16.88;;;8.80;;
31760;SDS011;18335;51.486;7.562;2023-03-01T12:52:14;16.30;;;7.65;;
31760;SDS011;18335;51.486;7.562;2023-03-01T12:54:48;15.68;;;8.10;;
31760;SDS011;18335;51.486;7.562;2023-03-01T12:57:21;17.23;;;8.20;;
31760;SDS011;18335;51.486;7.562;2023-03-01T12:59:59;14.50;;;8.65;;
31760;SDS011;18335;51.486;7.562;2023-03-01T13:02:35;15.35;;;8.23;;
31760;SDS011;18335;51.486;7.562;2023-03-01T13:05:17;16.60;;;8.48;;
31760;SDS011;18335;51.486;7.562;2023-03-01T13:07:52;19.05;;;8.30;;
31760;SDS011;18335;51.486;7.562;2023-03-01T13:10:29;14.25;;;7.53;;
31760;SDS011;18335;51.486;7.562;2023-03-01T13:13:08;13.38;;;7.35;;
31760;SDS011;18335;51.486;7.562;2023-03-01T13:15:39;15.75;;;7.55;;
31760;SDS011;18335;51.486;7.562;2023-03-01T13:18:27;13.70;;;7.53;;
31760;SDS011;18335;51.486;7.562;2023-03-01T13:20:56;14.85;;;8.02;;
31760;SDS011;18335;51.486;7.562;2023-03-01T13:23:26;14.77;;;7.82;;
31760;SDS011;18335;51.486;7.562;2023-03-01T13:26:04;14.43;;;7.53;;
31760;SDS011;18335;51.486;7.562;2023-03-01T13:28:48;16.13;;;7.40;;
31760;SDS011;18335;51.486;7.562;2023-03-01T13:34:45;15.15;;;7.88;;
31760;SDS011;18335;51.486;7.562;2023-03-01T13:37:22;14.38;;;7.07;;
31760;SDS011;18335;51.486;7.562;2023-03-01T13:40:01;12.50;;;6.70;;
31760;SDS011;18335;51.486;7.562;2023-03-01T13:42:56;13.23;;;6.18;;
31760;SDS011;18335;51.486;7.562;2023-03-01T13:45:45;18.15;;;9.55;;
31760;SDS011;18335;51.486;7.562;2023-03-01T13:48:15;14.88;;;6.80;;
31760;SDS011;18335;51.486;7.562;2023-03-01T13:50:48;16.92;;;6.68;;
31760;SDS011;18335;51.486;7.562;2023-03-01T13:53:19;15.02;;;6.82;;
31760;SDS011;18335;51.486;7.562;2023-03-01T13:55:49;14.25;;;7.28;;
31760;SDS011;18335;51.486;7.562;2023-03-01T13:58:21;16.40;;;8.45;;
31760;SDS011;18335;51.486;7.562;2023-03-01T14:01:01;14.32;;;5.85;;
31760;SDS011;18335;51.486;7.562;2023-03-01T14:03:30;16.73;;;6.25;;
31760;SDS011;18335;51.486;7.562;2023-03-01T14:06:00;13.60;;;7.03;;
31760;SDS011;18335;51.486;7.562;2023-03-01T14:08:31;11.00;;;6.03;;
31760;SDS011;18335;51.486;7.562;2023-03-01T14:14:21;15.65;;;6.97;;
31760;SDS011;18335;51.486;7.562;2023-03-01T14:17:18;12.30;;;6.45;;
31760;SDS011;18335;51.486;7.562;2023-03-01T14:20:08;13.38;;;6.32;;
31760;SDS011;18335;51.486;7.562;2023-03-01T14:22:40;14.60;;;5.88;;
31760;SDS011;18335;51.486;7.562;2023-03-01T14:25:23;13.75;;;6.10;;
31760;SDS011;18335;51.486;7.562;2023-03-01T14:27:55;15.55;;;6.55;;
31760;SDS011;18335;51.486;7.562;2023-03-01T14:30:30;10.50;;;5.50;;
31760;SDS011;18335;51.486;7.562;2023-03-01T14:33:00;16.48;;;7.30;;
31760;SDS011;18335;51.486;7.562;2023-03-01T14:35:29;12.55;;;6.28;;
31760;SDS011;18335;51.486;7.562;2023-03-01T14:37:57;14.15;;;6.22;;
31760;SDS011;18335;51.486;7.562;2023-03-01T14:40:25;12.68;;;6.65;;
31760;SDS011;18335;51.486;7.562;2023-03-01T14:42:53;13.88;;;6.03;;
31760;SDS011;18335;51.486;7.562;2023-03-01T14:45:22;14.48;;;6.78;;
31760;SDS011;18335;51.486;7.562;2023-03-01T14:47:51;16.85;;;7.07;;
31760;SDS011;18335;51.486;7.562;2023-03-01T14:50:22;14.02;;;6.25;;
31760;SDS011;18335;51.486;7.562;2023-03-01T14:52:52;13.95;;;6.45;;
31760;SDS011;18335;51.486;7.562;2023-03-01T14:55:21;12.20;;;6.57;;
31760;SDS011;18335;51.486;7.562;2023-03-01T14:57:53;13.73;;;6.47;;
31760;SDS011;18335;51.486;7.562;2023-03-01T15:00:21;13.10;;;6.03;;
31760;SDS011;18335;51.486;7.562;2023-03-01T15:02:51;13.55;;;7.53;;
31760;SDS011;18335;51.486;7.562;2023-03-01T15:05:24;11.98;;;6.03;;
31760;SDS011;18335;51.486;7.562;2023-03-01T15:07:54;12.75;;;6.15;;
31760;SDS011;18335;51.486;7.562;2023-03-01T15:10:24;11.95;;;6.30;;
31760;SDS011;18335;51.486;7.562;2023-03-01T15:12:52;12.80;;;6.55;;
31760;SDS011;18335;51.486;7.562;2023-03-01T15:15:33;13.27;;;6.63;;